Time;durP1;ratioP1;P1;durP2;ratioP2;P2;SDS_P1;SDS_P2;PMS_P1;PMS_P2;Temp;Humidity;BMP_temperature;BMP_pressure;BME280_temperature;BME280_humidity;BME280_pressure;Samples;Min_cycle;Max_cycle;Signal;HPM_P1;HPM_P2
2023/11/13 00:02:19;;;;;;;24.80;12.40;;;;;;;6.31;88.01;99761.38;107435;1271;25557;-77
2023/11/13 00:04:47;;;;;;;25.60;12.00;;;;;;;6.32;87.94;99757.96;107235;1275;23148;-77
2023/11/13 00:07:15;;;;;;;25.80;11.40;;;;;;;6.31;87.94;99759.81;107314;1273;23405;-77
2023/11/13 00:09:44;;;;;;;25.40;11.80;;;;;;;6.31;87.96;99760.15;107428;1266;25287;-78
2023/11/13 00:12:13;;;;;;;26.90;12.20;;;;;;;6.30;87.97;99762.70;107407;1273;22611;-76
2023/11/13 00:14:43;;;;;;;25.00;11.10;;;;;;;6.29;88.06;99764.40;110213;1277;22090;-76
2023/11/13 00:17:12;;;;;;;26.30;11.00;;;;;;;6.29;88.01;99772.10;106046;1278;5395071;-75
2023/11/13 00:19:43;;;;;;;28.60;12.10;;;;;;;6.27;88.05;99772.95;109284;1271;24227;-75
2023/11/13 00:22:12;;;;;;;26.70;11.30;;;;;;;6.26;87.97;99777.05;107269;1274;24224;-77
2023/11/13 00:24:41;;;;;;;24.40;11.10;;;;;;;6.26;88.08;99782.36;107271;1275;22549;-77
2023/11/13 00:27:09;;;;;;;25.50;11.40;;;;;;;6.27;88.17;99782.73;107346;1278;22551;-77
2023/11/13 00:29:39;;;;;;;24.20;11.00;;;;;;;6.26;88.13;99781.73;107368;1277;25360;-78
2023/11/13 00:32:08;;;;;;;29.60;12.60;;;;;;;6.25;88.14;99784.13;107671;1274;23365;-77
2023/11/13 00:34:37;;;;;;;25.90;12.40;;;;;;;6.23;88.27;99781.30;107463;1275;25320;-75
2023/11/13 00:37:06;;;;;;;26.10;10.30;;;;;;;6.22;88.33;99784.98;107509;1272;25911;-74
2023/11/13 00:39:36;;;;;;;29.80;11.40;;;;;;;6.21;88.27;99782.42;107323;1275;26065;-74
2023/11/13 00:42:06;;;;;;;27.20;10.70;;;;;;;6.22;88.48;99784.05;110238;1274;22160;-77
2023/11/13 00:44:35;;;;;;;26.10;11.40;;;;;;;6.22;88.41;99788.73;110176;1273;22183;-78
2023/11/13 00:47:05;;;;;;;28.40;11.40;;;;;;;6.22;88.51;99786.91;110161;1275;22471;-78
2023/11/13 00:49:34;;;;;;;26.40;11.60;;;;;;;6.22;88.45;99783.81;110211;1272;22343;-79
2023/11/13 00:52:06;;;;;;;27.60;11.20;;;;;;;6.21;88.47;99782.89;110205;1277;23103;-79
2023/11/13 00:54:35;;;;;;;26.20;10.70;;;;;;;6.20;88.59;99778.80;110228;1278;22322;-77
2023/11/13 00:57:07;;;;;;;25.90;11.20;;;;;;;6.21;88.64;99780.59;110181;1277;22234;-77
2023/11/13 00:59:35;;;;;;;22.80;10.90;;;;;;;6.21;88.57;99782.64;109967;1277;22565;-78
2023/11/13 01:02:04;;;;;;;24.70;11.20;;;;;;;6.21;88.50;99784.62;107453;1278;26532;-77
2023/11/13 01:04:33;;;;;;;27.00;11.60;;;;;;;6.22;88.67;99781.73;107432;1278;22528;-77
2023/11/13 01:07:03;;;;;;;25.60;11.90;;;;;;;6.23;88.65;99776.55;107438;1278;22543;-77
2023/11/13 01:09:31;;;;;;;28.00;11.80;;;;;;;6.23;88.64;99775.11;107504;1278;22771;-77
2023/11/13 01:12:00;;;;;;;27.40;11.70;;;;;;;6.23;88.55;99779.17;107467;1268;24324;-77
2023/11/13 01:14:28;;;;;;;23.50;10.60;;;;;;;6.22;88.60;99777.55;107439;1270;24956;-77
2023/11/13 01:16:57;;;;;;;26.30;11.70;;;;;;;6.23;88.60;99782.25;107419;1271;25472;-79
2023/11/13 01:19:27;;;;;;;27.10;10.50;;;;;;;6.22;88.58;99781.42;107454;1259;23165;-77
2023/11/13 01:21:56;;;;;;;26.20;11.30;;;;;;;6.23;88.73;99786.43;108136;1272;23176;-78
2023/11/13 01:24:25;;;;;;;26.60;10.90;;;;;;;6.24;88.74;99786.40;110197;1275;22183;-77
2023/11/13 01:26:54;;;;;;;27.20;12.00;;;;;;;6.22;88.46;99784.04;110238;1270;22436;-80
2023/11/13 01:29:23;;;;;;;26.00;10.90;;;;;;;6.21;88.60;99784.23;110239;1270;22361;-78
2023/11/13 01:31:53;;;;;;;22.80;10.20;;;;;;;6.19;88.53;99788.29;110234;1272;23017;-77
2023/11/13 01:34:22;;;;;;;22.50;10.10;;;;;;;6.18;88.61;99792.05;110207;1275;23084;-79
2023/11/13 01:36:51;;;;;;;20.90;10.10;;;;;;;6.19;88.63;99794.08;110168;1278;23267;-77
2023/11/13 01:39:20;;;;;;;21.60;9.30;;;;;;;6.20;88.77;99790.84;110153;1274;22489;-78
2023/11/13 01:41:50;;;;;;;25.10;9.90;;;;;;;6.20;88.65;99793.95;110176;1272;22252;-79
2023/11/13 01:44:19;;;;;;;25.80;10.80;;;;;;;6.20;88.45;99794.51;110213;1271;22938;-77
2023/11/13 01:46:49;;;;;;;21.80;9.90;;;;;;;6.20;88.68;99794.02;110188;1272;22231;-79
2023/11/13 01:49:19;;;;;;;21.30;9.30;;;;;;;6.19;88.62;99794.29;110049;1278;22408;-78
2023/11/13 01:51:49;;;;;;;22.40;9.60;;;;;;;6.19;88.68;99792.39;110154;1273;22927;-78
2023/11/13 01:54:20;;;;;;;23.10;9.80;;;;;;;6.19;88.60;99791.70;110190;1275;22831;-77
2023/11/13 01:56:51;;;;;;;22.90;9.40;;;;;;;6.16;88.53;99791.73;110211;1275;22220;-78
2023/11/13 01:59:21;;;;;;;20.70;9.30;;;;;;;6.16;88.58;99793.65;110180;1272;22932;-79
2023/11/13 02:01:50;;;;;;;24.10;8.70;;;;;;;6.16;88.62;99794.73;110155;1278;22177;-78
2023/11/13 02:04:20;;;;;;;23.90;8.80;;;;;;;6.14;88.56;99792.44;110208;1278;22459;-78
2023/11/13 02:06:49;;;;;;;20.00;8.00;;;;;;;6.12;88.45;99794.89;110179;1275;22296;-78
2023/11/13 02:09:20;;;;;;;21.50;9.80;;;;;;;6.10;88.35;99789.45;110034;1278;22217;-77
2023/11/13 02:11:49;;;;;;;18.90;7.80;;;;;;;6.11;88.38;99783.25;110114;1276;22201;-77
2023/11/13 02:14:19;;;;;;;19.80;8.20;;;;;;;6.12;88.27;99781.33;110211;1275;23077;-79
2023/11/13 02:16:50;;;;;;;18.40;7.10;;;;;;;6.11;88.11;99779.49;110201;1270;22186;-78
2023/11/13 02:19:19;;;;;;;16.80;6.90;;;;;;;6.11;88.12;99777.37;110181;1275;22347;-77
2023/11/13 02:21:48;;;;;;;19.70;7.00;;;;;;;6.12;88.06;99772.67;110182;1277;22205;-77
2023/11/13 02:24:17;;;;;;;19.70;6.70;;;;;;;6.13;87.97;99772.39;110165;1276;22390;-78
2023/11/13 02:26:46;;;;;;;14.80;6.20;;;;;;;6.15;88.02;99767.87;110172;1278;23083;-78
2023/11/13 02:29:15;;;;;;;16.60;6.80;;;;;;;6.18;88.06;99768.30;110168;1271;22145;-78
2023/11/13 02:31:52;;;;;;;16.10;6.70;;;;;;;6.20;87.88;99773.05;110219;1271;22233;-77
2023/11/13 02:34:21;;;;;;;17.50;6.30;;;;;;;6.21;87.92;99772.43;110208;1275;22272;-78
2023/11/13 02:36:52;;;;;;;16.70;6.10;;;;;;;6.23;87.75;99777.20;110243;1275;22293;-77
2023/11/13 02:39:22;;;;;;;18.80;5.70;;;;;;;6.23;87.98;99775.14;110051;1278;22333;-78
2023/11/13 02:41:51;;;;;;;18.30;5.70;;;;;;;6.23;87.64;99774.33;110216;1277;22342;-79
2023/11/13 02:44:20;;;;;;;22.00;6.20;;;;;;;6.20;87.27;99773.58;110167;1272;22055;-78
2023/11/13 02:46:49;;;;;;;17.30;6.30;;;;;;;6.18;87.30;99767.45;110199;1278;23286;-78
2023/11/13 02:49:18;;;;;;;19.30;6.30;;;;;;;6.17;87.58;99770.73;110187;1278;22359;-79
2023/11/13 02:51:47;;;;;;;17.50;6.60;;;;;;;6.15;87.40;99774.27;110181;1275;22352;-78
2023/11/13 02:54:16;;;;;;;19.10;6.80;;;;;;;6.14;87.21;99777.01;110208;1277;23091;-77
2023/11/13 02:56:45;;;;;;;16.10;5.80;;;;;;;6.13;87.40;99775.52;110143;1275;23615;-78
2023/11/13 02:59:13;;;;;;;15.30;5.60;;;;;;;6.11;86.97;99776.20;110001;1278;22333;-78
2023/11/13 03:01:42;;;;;;;16.70;5.60;;;;;;;6.05;86.80;99773.61;110194;1278;22477;-77
2023/11/13 03:04:11;;;;;;;12.50;5.10;;;;;;;6.01;86.83;99773.23;110174;1278;22799;-80
2023/11/13 03:06:40;;;;;;;14.50;5.90;;;;;;;5.98;86.93;99775.72;110267;1273;22386;-78
2023/11/13 03:09:09;;;;;;;15.30;5.80;;;;;;;5.94;86.75;99772.09;110229;1272;22337;-80
2023/11/13 03:11:39;;;;;;;19.50;6.40;;;;;;;5.89;86.73;99768.16;110180;1277;22213;-78
2023/11/13 03:14:07;;;;;;;15.10;5.00;;;;;;;5.86;86.87;99758.89;110148;1275;22181;-77
2023/11/13 03:16:37;;;;;;;14.80;4.80;;;;;;;5.85;87.02;99761.38;108200;1275;27404;-77
2023/11/13 03:19:06;;;;;;;16.40;5.70;;;;;;;5.83;86.77;99765.15;107527;1277;22646;-77
2023/11/13 03:21:34;;;;;;;15.90;5.50;;;;;;;5.79;86.64;99762.77;107587;1277;25917;-77
2023/11/13 03:24:04;;;;;;;16.10;6.30;;;;;;;5.76;86.67;99760.77;107509;1278;25310;-77
2023/11/13 03:26:32;;;;;;;16.90;6.50;;;;;;;5.71;86.63;99761.05;107420;1278;24905;-77
2023/11/13 03:29:01;;;;;;;14.00;4.70;;;;;;;5.67;86.92;99757.00;107264;1276;23151;-79
2023/11/13 03:31:30;;;;;;;15.70;6.00;;;;;;;5.66;86.89;99755.64;107482;1276;25513;-78
2023/11/13 03:33:59;;;;;;;16.90;5.40;;;;;;;5.63;86.73;99756.00;107401;1278;26663;-77
2023/11/13 03:36:28;;;;;;;12.50;5.40;;;;;;;5.60;86.59;99754.55;107518;1268;22642;-77
2023/11/13 03:38:56;;;;;;;12.40;4.70;;;;;;;5.56;86.57;99757.86;107450;1278;22563;-76
2023/11/13 03:41:24;;;;;;;17.20;5.50;;;;;;;5.51;86.47;99755.35;107448;1278;22570;-77
2023/11/13 03:43:53;;;;;;;9.70;3.90;;;;;;;5.47;86.43;99755.86;107465;1276;22531;-78
2023/11/13 03:46:22;;;;;;;13.80;5.30;;;;;;;5.42;86.64;99756.98;107555;1278;22557;-77
2023/11/13 03:48:50;;;;;;;13.60;4.70;;;;;;;5.40;86.59;99760.40;107480;1274;22559;-78
2023/11/13 03:51:19;;;;;;;15.60;5.00;;;;;;;5.37;86.55;99762.09;107401;1277;23002;-76
2023/11/13 03:53:47;;;;;;;16.10;4.90;;;;;;;5.33;86.45;99762.63;107294;1276;25297;-77
2023/11/13 03:56:16;;;;;;;15.00;4.80;;;;;;;5.29;86.54;99763.59;107341;1278;22597;-77
2023/11/13 03:58:44;;;;;;;13.30;4.70;;;;;;;5.25;86.26;99765.57;107403;1272;26537;-76
2023/11/13 04:01:14;;;;;;;13.50;4.40;;;;;;;5.21;85.93;99777.91;107441;1278;22533;-77
2023/11/13 04:03:42;;;;;;;16.00;5.20;;;;;;;5.16;85.97;99776.53;107507;1259;22563;-77
2023/11/13 04:06:11;;;;;;;15.80;6.20;;;;;;;5.09;85.86;99772.90;107341;1277;23245;-76
2023/11/13 04:08:39;;;;;;;16.10;5.80;;;;;;;5.04;85.79;99773.73;107241;1277;25762;-77
2023/11/13 04:11:09;;;;;;;17.80;6.10;;;;;;;4.98;85.77;99778.47;107380;1276;22536;-76
2023/11/13 04:13:37;;;;;;;18.30;6.30;;;;;;;4.92;85.70;99782.89;107355;1277;24841;-76
2023/11/13 04:16:08;;;;;;;15.90;6.10;;;;;;;4.86;85.82;99777.32;107194;1274;25363;-77
2023/11/13 04:18:37;;;;;;;15.80;5.20;;;;;;;4.81;85.95;99776.49;107221;1275;22990;-77
2023/11/13 04:21:06;;;;;;;19.90;6.80;;;;;;;4.76;85.87;99778.81;107374;1264;24343;-77
2023/11/13 04:23:34;;;;;;;17.80;6.40;;;;;;;4.69;85.73;99788.63;107472;1277;23023;-78
2023/11/13 04:26:03;;;;;;;19.10;6.00;;;;;;;4.59;85.68;99791.54;107392;1278;23387;-78
2023/11/13 04:28:33;;;;;;;18.40;7.10;;;;;;;4.51;86.01;99791.08;107316;1277;23251;-77
2023/11/13 04:31:02;;;;;;;17.80;6.20;;;;;;;4.45;86.26;99780.48;107442;1261;23417;-77
2023/11/13 04:33:30;;;;;;;19.10;7.40;;;;;;;4.41;86.41;99785.21;107417;1276;22539;-78
2023/11/13 04:36:01;;;;;;;21.10;6.40;;;;;;;4.38;86.60;99792.28;107357;1278;24219;-77
2023/11/13 04:38:30;;;;;;;18.90;5.60;;;;;;;4.31;86.41;99794.16;107434;1277;23263;-77
2023/11/13 04:40:58;;;;;;;19.80;6.70;;;;;;;4.27;86.77;99792.99;107494;1278;22673;-79
2023/11/13 04:43:27;;;;;;;16.10;5.70;;;;;;;4.24;86.83;99790.16;107435;1277;22547;-77
2023/11/13 04:45:56;;;;;;;16.40;5.40;;;;;;;4.23;87.14;99788.52;107333;1277;22559;-77
2023/11/13 04:48:24;;;;;;;13.90;5.40;;;;;;;4.20;87.10;99791.08;107244;1270;22555;-77
2023/11/13 04:50:53;;;;;;;16.70;6.10;;;;;;;4.17;86.98;99790.95;107174;1276;22659;-76
2023/11/13 04:53:22;;;;;;;17.40;6.00;;;;;;;4.12;86.97;99792.05;107212;1270;22610;-77
2023/11/13 04:55:52;;;;;;;18.10;6.20;;;;;;;4.09;86.92;99798.16;107049;1270;22590;-79
2023/11/13 04:58:21;;;;;;;13.60;4.70;;;;;;;4.04;86.93;99793.17;107241;1270;22591;-78
2023/11/13 05:00:50;;;;;;;15.20;5.50;;;;;;;3.99;87.06;99796.25;107323;1273;22553;-77
2023/11/13 05:03:19;;;;;;;16.00;5.60;;;;;;;3.96;87.05;99803.46;107450;1270;22834;-78
2023/11/13 05:05:47;;;;;;;16.40;6.30;;;;;;;3.93;87.15;99808.23;107346;1271;22565;-77
2023/11/13 05:08:16;;;;;;;15.60;4.80;;;;;;;3.91;87.45;99807.98;107145;1270;26541;-78
2023/11/13 05:11:02;;;;;;;19.50;5.20;;;;;;;3.90;87.41;99809.44;107303;1278;22560;-78
2023/11/13 05:13:34;;;;;;;14.80;4.90;;;;;;;3.88;87.54;99807.77;107359;1270;22556;-78
2023/11/13 05:16:03;;;;;;;16.80;5.10;;;;;;;3.87;87.56;99812.69;107323;1277;24498;-77
2023/11/13 05:18:39;;;;;;;16.30;4.80;;;;;;;3.85;87.65;99813.47;110282;1276;23039;-76
2023/11/13 05:21:18;;;;;;;15.70;5.60;;;;;;;3.84;87.66;99815.63;110228;1277;23472;-78
2023/11/13 05:23:47;;;;;;;16.90;5.30;;;;;;;3.84;87.82;99814.78;110160;1270;22384;-77
2023/11/13 05:26:16;;;;;;;16.60;5.60;;;;;;;3.84;87.87;99821.23;110306;1270;22948;-78
2023/11/13 05:28:45;;;;;;;13.90;3.90;;;;;;;3.85;87.96;99823.95;110192;1270;22404;-76
2023/11/13 05:31:14;;;;;;;13.90;5.30;;;;;;;3.86;88.14;99822.35;110173;1264;22394;-78
2023/11/13 05:33:43;;;;;;;17.20;5.70;;;;;;;3.88;88.33;99817.25;110259;1277;22628;-78
2023/11/13 05:36:13;;;;;;;14.90;4.20;;;;;;;3.90;88.34;99814.23;110331;1277;22990;-77
2023/11/13 05:38:43;;;;;;;14.30;4.50;;;;;;;3.92;88.32;99820.17;110254;1271;22340;-81
2023/11/13 05:41:11;;;;;;;11.70;3.80;;;;;;;3.93;88.40;99822.11;110195;1276;22374;-78
2023/11/13 05:43:40;;;;;;;16.10;4.00;;;;;;;3.94;88.45;99824.61;110175;1270;22396;-77
2023/11/13 05:46:09;;;;;;;14.60;4.60;;;;;;;3.96;88.52;99822.82;110142;1274;22261;-78
2023/11/13 05:48:40;;;;;;;13.60;4.40;;;;;;;3.99;88.71;99820.11;110187;1270;22339;-78
2023/11/13 05:51:09;;;;;;;12.90;4.00;;;;;;;4.02;88.76;99821.44;110184;1270;22331;-77
2023/11/13 05:53:37;;;;;;;14.40;4.40;;;;;;;4.06;88.86;99825.42;110157;1270;22483;-79
2023/11/13 05:56:07;;;;;;;14.70;4.80;;;;;;;4.08;88.80;99830.30;110192;1274;22223;-77
2023/11/13 05:58:35;;;;;;;17.70;4.70;;;;;;;4.10;88.70;99827.39;110187;1273;23099;-81
2023/11/13 06:01:05;;;;;;;15.80;5.30;;;;;;;4.14;88.75;99827.92;110193;1278;22919;-79
2023/11/13 06:03:33;;;;;;;17.60;5.60;;;;;;;4.17;88.79;99832.00;110177;1270;22259;-79
2023/11/13 06:06:06;;;;;;;18.60;6.10;;;;;;;4.18;88.61;99835.56;110235;1270;22369;-80
2023/11/13 06:08:35;;;;;;;15.80;4.60;;;;;;;4.20;88.62;99838.59;110176;1270;22206;-79
2023/11/13 06:11:04;;;;;;;15.70;4.10;;;;;;;4.21;88.70;99835.97;110144;1278;22218;-81
2023/11/13 06:13:35;;;;;;;16.20;4.90;;;;;;;4.21;88.55;99836.67;110194;1270;22438;-79
2023/11/13 06:16:06;;;;;;;18.30;4.50;;;;;;;4.22;88.63;99831.09;109961;1261;22375;-79
2023/11/13 06:18:46;;;;;;;17.20;4.20;;;;;;;4.24;88.65;99831.92;107338;1276;22573;-78
2023/11/13 06:21:14;;;;;;;;;;;;;;;4.25;88.68;99827.29;110213;1276;23605;-79
2023/11/13 06:23:44;;;;;;;12.50;3.50;;;;;;;4.25;88.62;99826.89;110157;1273;22327;-77
2023/11/13 06:26:13;;;;;;;14.60;3.10;;;;;;;4.26;88.64;99823.41;110192;1271;22227;-76
2023/11/13 06:28:42;;;;;;;13.50;3.90;;;;;;;4.27;88.63;99824.45;110286;1270;22448;-76
2023/11/13 06:31:11;;;;;;;12.70;4.10;;;;;;;4.27;88.31;99827.86;110260;1277;22412;-77
2023/11/13 06:33:41;;;;;;;12.50;3.40;;;;;;;4.27;88.44;99829.13;110231;1277;22220;-77
2023/11/13 06:36:11;;;;;;;14.90;4.20;;;;;;;4.28;88.21;99833.68;110208;1277;22589;-76
2023/11/13 06:38:40;;;;;;;13.40;3.70;;;;;;;4.29;88.37;99840.84;110279;1277;22266;-77
2023/11/13 06:41:10;;;;;;;14.00;4.00;;;;;;;4.31;88.48;99844.45;110212;1277;22192;-77
2023/11/13 06:43:39;;;;;;;15.70;3.20;;;;;;;4.34;88.43;99849.88;110264;1277;22206;-74
2023/11/13 06:46:08;;;;;;;21.90;4.20;;;;;;;4.36;88.40;99852.27;110268;1276;22219;-74
2023/11/13 06:48:38;;;;;;;15.90;4.10;;;;;;;4.39;88.39;99854.54;110263;1275;22227;-75
2023/11/13 06:51:08;;;;;;;12.10;3.70;;;;;;;4.43;88.41;99856.94;110250;1277;22346;-76
2023/11/13 06:53:38;;;;;;;13.20;3.60;;;;;;;4.46;88.50;99857.43;110257;1277;23039;-75
2023/11/13 06:56:09;;;;;;;14.80;3.60;;;;;;;4.50;88.60;99862.14;110241;1277;23296;-75
2023/11/13 06:58:38;;;;;;;13.90;3.60;;;;;;;4.53;88.52;99865.48;110314;1276;22243;-75
2023/11/13 07:01:09;;;;;;;14.50;3.70;;;;;;;4.57;88.55;99869.93;110228;1277;22237;-76
2023/11/13 07:03:38;;;;;;;13.00;4.30;;;;;;;4.59;88.62;99868.05;110229;1277;22476;-75
2023/11/13 07:06:10;;;;;;;15.60;4.20;;;;;;;4.62;88.47;99867.31;110267;1277;22976;-75
2023/11/13 07:08:40;;;;;;;13.30;3.60;;;;;;;4.67;88.52;99876.05;110231;1278;22961;-75
2023/11/13 07:11:10;;;;;;;11.20;3.30;;;;;;;4.72;88.42;99874.24;110247;1273;22202;-76
2023/11/13 07:13:40;;;;;;;13.70;3.90;;;;;;;4.76;88.41;99881.11;110291;1276;22196;-76
2023/11/13 07:16:10;;;;;;;13.30;3.20;;;;;;;4.80;88.42;99880.28;110245;1278;23087;-76
2023/11/13 07:18:39;;;;;;;13.60;3.60;;;;;;;4.85;88.47;99879.86;110218;1278;22775;-76
2023/11/13 07:21:08;;;;;;;12.80;3.20;;;;;;;4.91;88.68;99880.61;110212;1278;23158;-75
2023/11/13 07:23:37;;;;;;;11.80;3.90;;;;;;;4.95;88.55;99878.46;110290;1276;23275;-75
2023/11/13 07:26:07;;;;;;;10.20;2.60;;;;;;;5.00;88.35;99881.48;110266;1277;22190;-75
2023/11/13 07:28:36;;;;;;;17.40;3.20;;;;;;;5.04;88.44;99883.20;110273;1277;22663;-76
2023/11/13 07:31:07;;;;;;;12.40;2.50;;;;;;;5.09;88.37;99885.33;110215;1277;22881;-75
2023/11/13 07:33:38;;;;;;;9.30;3.00;;;;;;;5.14;88.33;99881.52;110074;1278;22247;-75
2023/11/13 07:36:11;;;;;;;13.80;2.60;;;;;;;5.17;88.13;99875.63;110260;1262;22228;-76
2023/11/13 07:38:43;;;;;;;14.10;3.00;;;;;;;5.20;88.05;99880.64;110293;1273;22204;-75
2023/11/13 07:41:12;;;;;;;13.50;3.40;;;;;;;5.23;88.04;99885.13;110301;1277;22258;-75
2023/11/13 07:43:43;;;;;;;13.30;3.00;;;;;;;5.28;88.10;99883.11;110030;1273;22949;-75
2023/11/13 07:46:13;;;;;;;11.70;2.80;;;;;;;5.33;88.11;99881.92;110222;1277;22212;-75
2023/11/13 07:48:41;;;;;;;;;;;;;;;5.37;88.05;99873.36;110360;1274;24649;-75
2023/11/13 07:51:11;;;;;;;11.30;2.50;;;;;;;5.41;87.94;99878.27;110282;1277;22217;-76
2023/11/13 07:53:40;;;;;;;10.70;2.70;;;;;;;5.45;87.88;99870.45;110271;1277;22186;-75
2023/11/13 07:56:11;;;;;;;11.10;2.40;;;;;;;5.50;88.00;99871.14;110261;1270;22250;-75
2023/11/13 07:58:40;;;;;;;16.40;3.10;;;;;;;5.55;87.89;99871.73;110264;1277;23090;-77
2023/11/13 08:01:09;;;;;;;15.30;2.50;;;;;;;5.60;87.68;99875.73;110235;1278;22773;-78
2023/11/13 08:03:38;;;;;;;12.60;2.70;;;;;;;5.65;87.71;99871.42;108804;1278;22691;-81
2023/11/13 08:06:07;;;;;;;11.70;2.40;;;;;;;5.70;87.37;99862.77;107556;1277;22583;-78
2023/11/13 08:08:37;;;;;;;9.80;2.50;;;;;;;5.73;87.34;99857.64;107667;1277;25327;-77
2023/11/13 08:11:07;;;;;;;12.60;2.40;;;;;;;5.77;87.13;99856.89;107673;1277;22554;-78
2023/11/13 08:13:37;;;;;;;10.30;1.90;;;;;;;5.80;86.75;99860.48;107599;1277;22656;-77
2023/11/13 08:16:08;;;;;;;10.10;2.70;;;;;;;5.81;86.59;99859.80;110225;1277;22193;-78
2023/11/13 08:18:37;;;;;;;11.80;2.50;;;;;;;5.83;86.78;99855.63;110260;1262;22110;-78
2023/11/13 08:21:10;;;;;;;11.80;3.00;;;;;;;5.85;86.58;99861.52;110279;1271;22439;-78
2023/11/13 08:23:39;;;;;;;10.90;2.50;;;;;;;5.87;86.43;99862.59;110259;1277;22208;-78
2023/11/13 08:26:08;;;;;;;7.10;1.90;;;;;;;5.91;86.46;99860.55;110276;1270;22218;-78
2023/11/13 08:28:37;;;;;;;13.20;2.60;;;;;;;5.94;86.29;99859.23;110280;1277;22213;-78
2023/11/13 08:31:07;;;;;;;10.40;2.10;;;;;;;5.98;86.31;99857.67;110251;1276;22256;-78
2023/11/13 08:33:37;;;;;;;11.50;1.90;;;;;;;6.00;85.78;99853.06;110311;1276;22046;-80
2023/11/13 08:36:11;;;;;;;15.40;2.40;;;;;;;6.02;85.81;99855.69;110232;1277;22895;-78
2023/11/13 08:38:42;;;;;;;13.00;3.20;;;;;;;6.02;85.57;99857.45;110267;1277;22219;-77
2023/11/13 08:41:13;;;;;;;9.60;2.90;;;;;;;6.03;85.50;99859.00;110292;1277;22178;-78
2023/11/13 08:43:44;;;;;;;16.20;3.50;;;;;;;6.04;85.61;99865.98;110248;1262;22882;-78
2023/11/13 08:46:13;;;;;;;11.30;2.90;;;;;;;6.04;85.40;99867.35;110252;1277;22185;-77
2023/11/13 08:48:42;;;;;;;11.90;2.80;;;;;;;6.05;85.41;99868.20;110234;1262;22344;-79
2023/11/13 08:51:14;;;;;;;9.10;2.20;;;;;;;6.07;85.51;99870.35;109271;1277;23400;-77
2023/11/13 08:53:43;;;;;;;12.80;2.70;;;;;;;6.08;85.47;99870.30;107653;1276;26000;-77
2023/11/13 08:56:15;;;;;;;11.50;2.30;;;;;;;6.10;85.50;99869.45;107594;1276;22541;-77
2023/11/13 08:58:44;;;;;;;11.80;2.70;;;;;;;6.11;85.30;99863.38;107493;1254;27385;-77
2023/11/13 09:01:15;;;;;;;10.20;2.40;;;;;;;6.13;85.48;99860.36;110270;1276;22200;-78
2023/11/13 09:03:45;;;;;;;13.70;2.60;;;;;;;6.15;85.25;99866.00;110213;1277;22478;-80
2023/11/13 09:06:14;;;;;;;9.70;2.20;;;;;;;6.16;85.13;99866.98;110316;1277;22151;-78
2023/11/13 09:08:43;;;;;;;9.40;2.00;;;;;;;6.16;85.28;99862.04;110261;1277;22202;-79
2023/11/13 09:11:17;;;;;;;13.10;2.10;;;;;;;6.18;84.93;99860.77;110259;1278;22868;-78
2023/11/13 09:13:46;;;;;;;16.90;3.40;;;;;;;6.19;84.82;99864.13;110185;1276;23174;-78
2023/11/13 09:16:17;;;;;;;14.90;3.50;;;;;;;6.21;84.72;99863.38;110294;1277;22742;-78
2023/11/13 09:18:48;;;;;;;11.10;2.20;;;;;;;6.23;84.59;99864.94;110260;1265;22369;-78
2023/11/13 09:21:18;;;;;;;15.00;2.40;;;;;;;6.25;84.31;99868.58;110263;1274;22949;-79
2023/11/13 09:23:47;;;;;;;11.60;1.90;;;;;;;6.26;84.03;99865.92;110271;1276;23687;-78
2023/11/13 09:26:16;;;;;;;9.90;2.70;;;;;;;6.29;83.95;99865.24;110286;1277;23061;-77
2023/11/13 09:28:45;;;;;;;9.10;2.30;;;;;;;6.34;83.75;99860.57;110298;1270;22369;-79
2023/11/13 09:31:14;;;;;;;10.80;1.70;;;;;;;6.40;83.75;99859.46;110318;1276;22183;-78
2023/11/13 09:33:45;;;;;;;8.20;1.60;;;;;;;6.47;83.18;99858.55;110138;1276;22201;-78
2023/11/13 09:36:13;;;;;;;7.90;1.50;;;;;;;6.55;82.83;99857.79;110311;1276;22170;-78
2023/11/13 09:38:42;;;;;;;8.40;1.60;;;;;;;6.64;82.97;99862.52;110315;1277;22209;-78
2023/11/13 09:41:15;;;;;;;6.30;1.40;;;;;;;6.71;82.75;99857.21;110249;1276;22212;-77
2023/11/13 09:43:45;;;;;;;7.60;1.60;;;;;;;6.79;82.82;99858.52;110118;1276;22887;-81
2023/11/13 09:46:15;;;;;;;;;;;;;;;6.88;82.74;99857.55;110270;1270;22449;-78
2023/11/13 09:48:53;;;;;;;7.70;2.20;;;;;;;6.97;82.81;99857.45;110340;1270;22236;-78
2023/11/13 09:51:24;;;;;;;9.70;1.60;;;;;;;7.08;82.67;99855.78;110317;1273;22963;-79
2023/11/13 09:53:59;;;;;;;7.30;1.50;;;;;;;7.17;82.11;99865.36;110250;1272;22203;-78
2023/11/13 09:56:30;;;;;;;10.80;1.50;;;;;;;7.24;81.60;99865.69;110269;1277;22848;-78
2023/11/13 09:59:02;;;;;;;9.30;1.60;;;;;;;7.30;80.90;99863.77;110258;1271;22964;-78
2023/11/13 10:01:31;;;;;;;7.80;1.50;;;;;;;7.32;80.29;99863.08;110284;1273;22505;-79
2023/11/13 10:04:04;;;;;;;11.60;1.60;;;;;;;7.34;80.31;99863.73;110265;1276;22186;-81
2023/11/13 10:06:36;;;;;;;11.00;1.40;;;;;;;7.33;80.31;99861.47;110323;1276;22262;-79
2023/11/13 10:09:07;;;;;;;8.90;1.10;;;;;;;7.31;79.78;99864.71;110287;1276;22180;-78
2023/11/13 10:11:37;;;;;;;8.90;1.20;;;;;;;7.30;79.29;99866.66;109311;1277;25375;-79
2023/11/13 10:14:17;;;;;;;6.10;1.10;;;;;;;7.31;79.01;99855.52;107449;1278;22559;-78
2023/11/13 10:16:56;;;;;;;6.30;1.20;;;;;;;7.33;79.10;99851.15;110235;1277;22739;-79
2023/11/13 10:19:27;;;;;;;5.70;1.00;;;;;;;7.35;79.06;99846.08;110282;1270;22258;-78
2023/11/13 10:21:57;;;;;;;7.50;1.30;;;;;;;7.36;79.01;99844.05;110305;1276;22343;-80
2023/11/13 10:24:27;;;;;;;8.30;1.00;;;;;;;7.35;79.02;99843.27;110322;1277;23013;-78
2023/11/13 10:27:17;;;;;;;5.40;0.90;;;;;;;7.36;78.42;99845.65;110245;1278;22223;-78
2023/11/13 10:29:47;;;;;;;4.60;1.00;;;;;;;7.37;78.40;99845.98;110277;1277;22491;-80
2023/11/13 10:32:31;;;;;;;8.60;1.20;;;;;;;7.39;78.21;99839.81;110319;1262;22222;-78
2023/11/13 10:35:09;;;;;;;6.40;1.10;;;;;;;7.41;78.24;99832.79;110109;1274;22203;-81
2023/11/13 10:37:54;;;;;;;8.50;1.30;;;;;;;7.44;77.80;99828.83;110323;1277;22299;-79
2023/11/13 10:40:29;;;;;;;4.00;1.10;;;;;;;7.48;77.49;99816.41;110198;1272;22223;-78
2023/11/13 10:43:04;;;;;;;6.70;1.00;;;;;;;7.51;77.46;99819.77;110274;1277;22724;-79
2023/11/13 10:45:36;;;;;;;9.30;1.40;;;;;;;7.56;77.34;99822.52;110282;1277;22232;-79
2023/11/13 10:48:06;;;;;;;5.70;1.20;;;;;;;7.59;77.21;99820.38;110313;1277;22281;-78
2023/11/13 10:50:35;;;;;;;;;;;;;;;7.64;77.35;99817.90;110277;1277;22439;-78
2023/11/13 10:53:12;;;;;;;10.70;1.60;;;;;;;7.68;77.35;99816.23;110339;1270;22615;-79
2023/11/13 10:55:42;;;;;;;8.80;1.40;;;;;;;7.70;77.21;99810.71;110280;1278;22372;-78
2023/11/13 10:58:11;;;;;;;8.30;1.30;;;;;;;7.73;76.77;99814.19;110259;1276;22223;-79
2023/11/13 11:00:43;;;;;;;7.30;1.30;;;;;;;7.76;76.77;99813.60;110126;1278;22210;-79
2023/11/13 11:03:33;;;;;;;8.50;1.20;;;;;;;7.79;76.24;99810.17;110068;1273;22205;-81
2023/11/13 11:06:11;;;;;;;8.00;1.00;;;;;;;7.85;75.94;99813.89;110179;1277;22929;-80
2023/11/13 11:08:43;;;;;;;5.50;0.90;;;;;;;7.90;75.58;99805.98;110267;1277;22199;-79
2023/11/13 11:11:13;;;;;;;5.10;0.70;;;;;;;7.95;74.78;99800.89;110235;1277;22575;-79
2023/11/13 11:13:50;;;;;;;5.10;0.60;;;;;;;8.01;74.47;99797.28;110300;1269;22372;-78
2023/11/13 11:16:46;;;;;;;3.30;0.50;;;;;;;8.11;73.80;99798.05;110100;1265;22911;-81
2023/11/13 11:20:18;;;;;;;2.10;0.30;;;;;;;8.22;72.29;99793.77;110267;1274;22443;-78
2023/11/13 11:22:52;;;;;;;1.10;0.20;;;;;;;8.30;71.58;99789.59;110208;1275;23260;-79
2023/11/13 11:25:51;;;;;;;3.30;0.80;;;;;;;8.37;71.69;99790.64;110256;1277;22213;-78
2023/11/13 11:28:45;;;;;;;3.90;0.90;;;;;;;8.47;72.87;99780.48;110145;1278;22231;-79
2023/11/13 11:32:13;;;;;;;4.40;0.90;;;;;;;8.56;72.72;99776.71;110097;1278;22971;-79
2023/11/13 11:34:51;;;;;;;3.00;0.60;;;;;;;8.63;71.99;99776.34;109878;1281;22357;-79
2023/11/13 11:37:25;;;;;;;2.60;0.40;;;;;;;8.69;70.71;99777.02;109927;1282;22232;-79
2023/11/13 11:40:14;;;;;;;5.80;1.00;;;;;;;8.76;70.83;99776.29;109902;1281;22999;-78
2023/11/13 11:42:49;;;;;;;4.20;1.00;;;;;;;8.81;71.31;99776.27;109914;1278;23050;-79
2023/11/13 11:45:23;;;;;;;8.50;1.00;;;;;;;8.83;71.06;99777.64;109898;1281;22201;-79